sensor_id;sensor_type;location;lat;lon;timestamp;P1;durP1;ratioP1;P2;durP2;ratioP2
48403;SDS011;34202;52.536;6.042;2022-07-24T00:00:48;6.20;;;4.50;;
48403;SDS011;34202;52.536;6.042;2022-07-24T00:05:48;5.70;;;3.60;;
48403;SDS011;34202;52.536;6.042;2022-07-24T00:10:49;8.30;;;4.60;;
48403;SDS011;34202;52.536;6.042;2022-07-24T00:15:49;4.80;;;4.10;;
48403;SDS011;34202;52.536;6.042;2022-07-24T00:20:49;5.30;;;4.70;;
48403;SDS011;34202;52.536;6.042;2022-07-24T00:25:50;5.20;;;4.00;;
48403;SDS011;34202;52.536;6.042;2022-07-24T00:30:51;6.10;;;4.20;;
48403;SDS011;34202;52.536;6.042;2022-07-24T00:35:52;4.90;;;4.20;;
48403;SDS011;34202;52.536;6.042;2022-07-24T00:40:52;7.90;;;4.50;;
48403;SDS011;34202;52.536;6.042;2022-07-24T00:45:52;5.50;;;4.40;;
48403;SDS011;34202;52.536;6.042;2022-07-24T00:50:53;6.70;;;4.60;;
48403;SDS011;34202;52.536;6.042;2022-07-24T00:55:53;5.70;;;4.30;;
48403;SDS011;34202;52.536;6.042;2022-07-24T01:00:54;7.90;;;5.10;;
48403;SDS011;34202;52.536;6.042;2022-07-24T01:05:54;8.30;;;4.90;;
48403;SDS011;34202;52.536;6.042;2022-07-24T01:10:55;7.00;;;4.70;;
48403;SDS011;34202;52.536;6.042;2022-07-24T01:15:56;6.70;;;4.80;;
48403;SDS011;34202;52.536;6.042;2022-07-24T01:20:58;4.90;;;4.40;;
48403;SDS011;34202;52.536;6.042;2022-07-24T01:25:58;6.30;;;4.50;;
48403;SDS011;34202;52.536;6.042;2022-07-24T01:30:59;6.30;;;4.70;;
48403;SDS011;34202;52.536;6.042;2022-07-24T01:35:59;4.30;;;3.70;;
48403;SDS011;34202;52.536;6.042;2022-07-24T01:40:59;7.70;;;4.50;;
48403;SDS011;34202;52.536;6.042;2022-07-24T01:46:00;5.30;;;4.80;;
48403;SDS011;34202;52.536;6.042;2022-07-24T01:51:00;4.80;;;4.40;;
48403;SDS011;34202;52.536;6.042;2022-07-24T01:56:01;6.00;;;4.60;;
48403;SDS011;34202;52.536;6.042;2022-07-24T02:01:01;4.70;;;4.30;;
48403;SDS011;34202;52.536;6.042;2022-07-24T02:06:02;5.80;;;4.70;;
48403;SDS011;34202;52.536;6.042;2022-07-24T02:11:03;5.60;;;5.10;;
48403;SDS011;34202;52.536;6.042;2022-07-24T02:16:05;6.40;;;5.00;;
48403;SDS011;34202;52.536;6.042;2022-07-24T02:21:06;5.50;;;4.80;;
48403;SDS011;34202;52.536;6.042;2022-07-24T02:26:06;6.40;;;5.70;;
48403;SDS011;34202;52.536;6.042;2022-07-24T02:31:06;5.80;;;5.30;;
48403;SDS011;34202;52.536;6.042;2022-07-24T02:36:07;6.50;;;5.50;;
48403;SDS011;34202;52.536;6.042;2022-07-24T02:41:08;6.00;;;4.50;;
48403;SDS011;34202;52.536;6.042;2022-07-24T02:46:08;8.00;;;6.80;;
48403;SDS011;34202;52.536;6.042;2022-07-24T02:51:08;13.00;;;6.50;;
48403;SDS011;34202;52.536;6.042;2022-07-24T02:56:10;7.60;;;6.30;;
48403;SDS011;34202;52.536;6.042;2022-07-24T03:01:10;8.40;;;5.70;;
48403;SDS011;34202;52.536;6.042;2022-07-24T03:06:11;6.50;;;5.80;;
48403;SDS011;34202;52.536;6.042;2022-07-24T03:11:11;6.20;;;5.20;;
48403;SDS011;34202;52.536;6.042;2022-07-24T03:16:11;6.80;;;6.10;;
48403;SDS011;34202;52.536;6.042;2022-07-24T03:21:12;10.60;;;7.40;;
48403;SDS011;34202;52.536;6.042;2022-07-24T03:26:14;9.70;;;6.50;;
48403;SDS011;34202;52.536;6.042;2022-07-24T03:31:14;11.00;;;7.70;;
48403;SDS011;34202;52.536;6.042;2022-07-24T03:36:14;7.00;;;5.80;;
48403;SDS011;34202;52.536;6.042;2022-07-24T03:41:15;6.70;;;6.10;;
48403;SDS011;34202;52.536;6.042;2022-07-24T03:46:15;7.00;;;6.30;;
48403;SDS011;34202;52.536;6.042;2022-07-24T03:51:15;8.60;;;6.60;;
48403;SDS011;34202;52.536;6.042;2022-07-24T03:56:16;9.70;;;8.00;;
48403;SDS011;34202;52.536;6.042;2022-07-24T04:01:17;9.40;;;7.50;;
48403;SDS011;34202;52.536;6.042;2022-07-24T04:06:17;7.80;;;6.40;;
48403;SDS011;34202;52.536;6.042;2022-07-24T04:11:17;8.80;;;8.00;;
48403;SDS011;34202;52.536;6.042;2022-07-24T04:16:18;8.10;;;7.20;;
48403;SDS011;34202;52.536;6.042;2022-07-24T04:21:18;7.90;;;7.20;;
48403;SDS011;34202;52.536;6.042;2022-07-24T04:26:19;9.40;;;7.70;;
48403;SDS011;34202;52.536;6.042;2022-07-24T04:31:19;10.50;;;8.50;;
48403;SDS011;34202;52.536;6.042;2022-07-24T04:36:20;10.00;;;7.20;;
48403;SDS011;34202;52.536;6.042;2022-07-24T04:41:20;13.60;;;7.80;;
48403;SDS011;34202;52.536;6.042;2022-07-24T04:46:20;9.50;;;8.50;;
48403;SDS011;34202;52.536;6.042;2022-07-24T04:51:21;10.90;;;7.40;;
48403;SDS011;34202;52.536;6.042;2022-07-24T04:56:21;10.10;;;8.80;;
48403;SDS011;34202;52.536;6.042;2022-07-24T05:01:21;9.40;;;7.90;;
48403;SDS011;34202;52.536;6.042;2022-07-24T05:06:22;10.70;;;8.40;;
48403;SDS011;34202;52.536;6.042;2022-07-24T05:11:23;11.60;;;8.50;;
48403;SDS011;34202;52.536;6.042;2022-07-24T05:16:24;11.30;;;8.70;;
48403;SDS011;34202;52.536;6.042;2022-07-24T05:21:24;8.70;;;7.80;;
48403;SDS011;34202;52.536;6.042;2022-07-24T05:26:24;12.00;;;9.10;;
48403;SDS011;34202;52.536;6.042;2022-07-24T05:31:25;10.30;;;8.10;;
48403;SDS011;34202;52.536;6.042;2022-07-24T05:36:25;10.90;;;9.20;;
48403;SDS011;34202;52.536;6.042;2022-07-24T05:41:25;15.10;;;9.70;;
48403;SDS011;34202;52.536;6.042;2022-07-24T05:46:26;11.40;;;9.40;;
48403;SDS011;34202;52.536;6.042;2022-07-24T05:51:26;12.70;;;10.90;;
48403;SDS011;34202;52.536;6.042;2022-07-24T05:56:27;17.80;;;11.60;;
48403;SDS011;34202;52.536;6.042;2022-07-24T06:01:27;15.20;;;13.20;;
48403;SDS011;34202;52.536;6.042;2022-07-24T06:06:27;17.90;;;13.40;;
48403;SDS011;34202;52.536;6.042;2022-07-24T06:11:28;16.00;;;12.10;;
48403;SDS011;34202;52.536;6.042;2022-07-24T06:16:28;16.10;;;11.50;;
48403;SDS011;34202;52.536;6.042;2022-07-24T06:21:29;15.50;;;10.80;;
48403;SDS011;34202;52.536;6.042;2022-07-24T06:26:29;11.50;;;9.20;;
48403;SDS011;34202;52.536;6.042;2022-07-24T06:31:29;11.60;;;9.00;;
48403;SDS011;34202;52.536;6.042;2022-07-24T06:36:30;13.80;;;9.50;;
48403;SDS011;34202;52.536;6.042;2022-07-24T06:41:30;10.80;;;8.20;;
48403;SDS011;34202;52.536;6.042;2022-07-24T06:46:31;10.50;;;7.90;;
48403;SDS011;34202;52.536;6.042;2022-07-24T06:51:31;9.00;;;6.80;;
48403;SDS011;34202;52.536;6.042;2022-07-24T06:56:31;8.40;;;5.80;;
48403;SDS011;34202;52.536;6.042;2022-07-24T07:01:32;7.30;;;5.80;;
48403;SDS011;34202;52.536;6.042;2022-07-24T07:06:33;6.50;;;5.30;;
48403;SDS011;34202;52.536;6.042;2022-07-24T07:11:33;6.40;;;4.70;;
48403;SDS011;34202;52.536;6.042;2022-07-24T07:16:33;4.30;;;3.90;;
48403;SDS011;34202;52.536;6.042;2022-07-24T07:21:34;7.80;;;4.20;;
48403;SDS011;34202;52.536;6.042;2022-07-24T07:26:36;4.30;;;3.20;;
48403;SDS011;34202;52.536;6.042;2022-07-24T07:31:36;4.50;;;3.00;;
48403;SDS011;34202;52.536;6.042;2022-07-24T07:36:37;3.10;;;2.40;;
48403;SDS011;34202;52.536;6.042;2022-07-24T07:41:37;2.90;;;2.70;;
48403;SDS011;34202;52.536;6.042;2022-07-24T07:46:38;3.80;;;3.10;;
48403;SDS011;34202;52.536;6.042;2022-07-24T07:51:38;2.80;;;2.60;;
48403;SDS011;34202;52.536;6.042;2022-07-24T07:56:38;3.40;;;2.40;;
48403;SDS011;34202;52.536;6.042;2022-07-24T08:01:39;3.70;;;2.70;;
48403;SDS011;34202;52.536;6.042;2022-07-24T08:06:39;3.50;;;2.00;;
48403;SDS011;34202;52.536;6.042;2022-07-24T08:11:39;2.50;;;2.10;;
48403;SDS011;34202;52.536;6.042;2022-07-24T08:16:40;3.00;;;2.00;;
48403;SDS011;34202;52.536;6.042;2022-07-24T08:21:40;2.30;;;2.00;;
48403;SDS011;34202;52.536;6.042;2022-07-24T08:26:40;1.80;;;1.60;;
48403;SDS011;34202;52.536;6.042;2022-07-24T08:31:41;3.10;;;1.90;;
48403;SDS011;34202;52.536;6.042;2022-07-24T08:36:41;1.90;;;1.60;;
48403;SDS011;34202;52.536;6.042;2022-07-24T08:41:45;3.30;;;1.50;;
48403;SDS011;34202;52.536;6.042;2022-07-24T08:46:45;1.80;;;1.50;;
48403;SDS011;34202;52.536;6.042;2022-07-24T08:51:46;2.60;;;2.00;;
48403;SDS011;34202;52.536;6.042;2022-07-24T08:56:48;3.40;;;1.90;;
48403;SDS011;34202;52.536;6.042;2022-07-24T09:01:49;2.20;;;1.70;;
48403;SDS011;34202;52.536;6.042;2022-07-24T09:06:57;3.50;;;1.70;;
48403;SDS011;34202;52.536;6.042;2022-07-24T09:12:03;5.90;;;1.70;;
48403;SDS011;34202;52.536;6.042;2022-07-24T09:22:25;3.40;;;1.90;;
48403;SDS011;34202;52.536;6.042;2022-07-24T09:27:35;1.80;;;1.70;;
48403;SDS011;34202;52.536;6.042;2022-07-24T09:32:37;2.80;;;1.90;;
48403;SDS011;34202;52.536;6.042;2022-07-24T09:37:38;2.40;;;2.00;;
48403;SDS011;34202;52.536;6.042;2022-07-24T09:42:39;4.90;;;2.00;;
48403;SDS011;34202;52.536;6.042;2022-07-24T09:47:39;2.80;;;1.80;;
48403;SDS011;34202;52.536;6.042;2022-07-24T09:52:40;13.90;;;1.90;;
48403;SDS011;34202;52.536;6.042;2022-07-24T09:57:42;6.30;;;2.40;;
48403;SDS011;34202;52.536;6.042;2022-07-24T10:02:43;3.40;;;2.30;;
48403;SDS011;34202;52.536;6.042;2022-07-24T10:07:46;3.70;;;1.60;;
48403;SDS011;34202;52.536;6.042;2022-07-24T10:17:55;3.40;;;2.00;;
48403;SDS011;34202;52.536;6.042;2022-07-24T10:23:03;3.80;;;1.70;;
48403;SDS011;34202;52.536;6.042;2022-07-24T10:28:05;2.20;;;1.80;;
48403;SDS011;34202;52.536;6.042;2022-07-24T10:33:13;2.20;;;1.90;;
48403;SDS011;34202;52.536;6.042;2022-07-24T10:38:20;3.80;;;2.30;;
48403;SDS011;34202;52.536;6.042;2022-07-24T10:43:26;2.60;;;2.00;;
48403;SDS011;34202;52.536;6.042;2022-07-24T10:48:28;3.90;;;1.70;;
48403;SDS011;34202;52.536;6.042;2022-07-24T10:58:50;3.50;;;2.00;;
48403;SDS011;34202;52.536;6.042;2022-07-24T11:04:42;3.40;;;1.80;;
48403;SDS011;34202;52.536;6.042;2022-07-24T11:09:26;3.50;;;2.20;;
48403;SDS011;34202;52.536;6.042;2022-07-24T11:19:37;2.10;;;1.90;;
48403;SDS011;34202;52.536;6.042;2022-07-24T11:24:39;2.70;;;1.80;;
48403;SDS011;34202;52.536;6.042;2022-07-24T11:29:40;3.40;;;1.90;;
48403;SDS011;34202;52.536;6.042;2022-07-24T11:34:59;2.20;;;2.00;;
48403;SDS011;34202;52.536;6.042;2022-07-24T11:40:01;1.60;;;1.50;;
48403;SDS011;34202;52.536;6.042;2022-07-24T11:45:04;2.40;;;1.80;;
48403;SDS011;34202;52.536;6.042;2022-07-24T11:50:06;3.00;;;2.10;;
48403;SDS011;34202;52.536;6.042;2022-07-24T11:55:14;2.30;;;2.00;;
48403;SDS011;34202;52.536;6.042;2022-07-24T12:00:20;1.90;;;1.80;;
48403;SDS011;34202;52.536;6.042;2022-07-24T12:05:26;4.20;;;1.60;;
48403;SDS011;34202;52.536;6.042;2022-07-24T12:10:34;2.40;;;1.70;;
48403;SDS011;34202;52.536;6.042;2022-07-24T12:15:37;2.40;;;1.70;;
48403;SDS011;34202;52.536;6.042;2022-07-24T12:20:40;2.70;;;1.90;;
48403;SDS011;34202;52.536;6.042;2022-07-24T12:25:43;2.20;;;1.60;;
48403;SDS011;34202;52.536;6.042;2022-07-24T12:30:51;3.20;;;2.70;;
48403;SDS011;34202;52.536;6.042;2022-07-24T12:41:02;2.00;;;1.50;;
48403;SDS011;34202;52.536;6.042;2022-07-24T12:46:06;2.90;;;2.20;;
48403;SDS011;34202;52.536;6.042;2022-07-24T12:51:11;2.40;;;1.70;;
48403;SDS011;34202;52.536;6.042;2022-07-24T12:56:15;1.90;;;1.80;;
48403;SDS011;34202;52.536;6.042;2022-07-24T13:01:17;1.70;;;1.60;;
48403;SDS011;34202;52.536;6.042;2022-07-24T13:06:18;2.80;;;1.90;;
48403;SDS011;34202;52.536;6.042;2022-07-24T13:11:18;1.80;;;1.50;;
48403;SDS011;34202;52.536;6.042;2022-07-24T13:16:19;4.40;;;2.10;;
48403;SDS011;34202;52.536;6.042;2022-07-24T13:21:19;2.30;;;1.60;;
48403;SDS011;34202;52.536;6.042;2022-07-24T13:26:20;2.80;;;1.70;;
48403;SDS011;34202;52.536;6.042;2022-07-24T13:31:21;2.00;;;1.60;;
48403;SDS011;34202;52.536;6.042;2022-07-24T13:36:21;3.80;;;1.60;;
48403;SDS011;34202;52.536;6.042;2022-07-24T13:41:22;2.90;;;1.90;;
48403;SDS011;34202;52.536;6.042;2022-07-24T13:49:23;2.70;;;1.80;;
48403;SDS011;34202;52.536;6.042;2022-07-24T13:54:23;1.80;;;1.50;;
48403;SDS011;34202;52.536;6.042;2022-07-24T13:59:24;4.10;;;1.90;;
48403;SDS011;34202;52.536;6.042;2022-07-24T14:04:24;2.00;;;1.90;;
48403;SDS011;34202;52.536;6.042;2022-07-24T14:09:25;4.00;;;1.80;;
48403;SDS011;34202;52.536;6.042;2022-07-24T14:14:26;2.20;;;1.80;;
48403;SDS011;34202;52.536;6.042;2022-07-24T14:19:26;3.50;;;1.60;;
48403;SDS011;34202;52.536;6.042;2022-07-24T14:24:26;2.20;;;2.00;;
48403;SDS011;34202;52.536;6.042;2022-07-24T14:29:27;3.60;;;2.00;;
48403;SDS011;34202;52.536;6.042;2022-07-24T14:34:27;2.10;;;1.70;;
48403;SDS011;34202;52.536;6.042;2022-07-24T14:39:27;1.90;;;1.70;;
48403;SDS011;34202;52.536;6.042;2022-07-24T14:44:29;2.30;;;1.30;;
48403;SDS011;34202;52.536;6.042;2022-07-24T14:49:30;1.60;;;1.50;;
48403;SDS011;34202;52.536;6.042;2022-07-24T14:54:31;3.40;;;1.40;;
48403;SDS011;34202;52.536;6.042;2022-07-24T14:59:31;2.50;;;1.20;;
48403;SDS011;34202;52.536;6.042;2022-07-24T15:04:31;3.70;;;1.50;;
48403;SDS011;34202;52.536;6.042;2022-07-24T15:09:32;1.40;;;1.30;;
48403;SDS011;34202;52.536;6.042;2022-07-24T15:14:32;2.80;;;1.30;;
48403;SDS011;34202;52.536;6.042;2022-07-24T15:19:32;1.40;;;1.10;;
48403;SDS011;34202;52.536;6.042;2022-07-24T15:24:33;1.30;;;1.20;;
48403;SDS011;34202;52.536;6.042;2022-07-24T15:29:33;2.10;;;1.30;;
48403;SDS011;34202;52.536;6.042;2022-07-24T15:34:34;1.30;;;1.20;;
48403;SDS011;34202;52.536;6.042;2022-07-24T15:39:34;2.30;;;1.30;;
48403;SDS011;34202;52.536;6.042;2022-07-24T15:44:34;1.30;;;1.10;;
48403;SDS011;34202;52.536;6.042;2022-07-24T15:49:35;3.10;;;1.20;;
48403;SDS011;34202;52.536;6.042;2022-07-24T15:54:35;2.00;;;1.40;;
48403;SDS011;34202;52.536;6.042;2022-07-24T15:59:36;1.30;;;1.20;;
48403;SDS011;34202;52.536;6.042;2022-07-24T16:04:36;1.40;;;1.30;;
48403;SDS011;34202;52.536;6.042;2022-07-24T16:09:36;2.90;;;2.10;;
48403;SDS011;34202;52.536;6.042;2022-07-24T16:14:37;3.60;;;1.40;;
48403;SDS011;34202;52.536;6.042;2022-07-24T16:19:37;1.80;;;1.40;;
48403;SDS011;34202;52.536;6.042;2022-07-24T16:24:38;1.50;;;1.20;;
48403;SDS011;34202;52.536;6.042;2022-07-24T16:29:39;6.00;;;2.40;;
48403;SDS011;34202;52.536;6.042;2022-07-24T16:34:39;3.30;;;1.50;;
48403;SDS011;34202;52.536;6.042;2022-07-24T16:39:39;1.50;;;1.30;;
48403;SDS011;34202;52.536;6.042;2022-07-24T16:44:40;1.20;;;1.10;;
48403;SDS011;34202;52.536;6.042;2022-07-24T16:49:40;2.20;;;1.20;;
48403;SDS011;34202;52.536;6.042;2022-07-24T16:54:40;3.50;;;1.10;;
48403;SDS011;34202;52.536;6.042;2022-07-24T16:59:41;2.30;;;1.40;;
48403;SDS011;34202;52.536;6.042;2022-07-24T17:04:42;1.20;;;1.10;;
48403;SDS011;34202;52.536;6.042;2022-07-24T17:09:42;1.50;;;1.40;;
48403;SDS011;34202;52.536;6.042;2022-07-24T17:14:42;1.80;;;1.10;;
48403;SDS011;34202;52.536;6.042;2022-07-24T17:19:43;1.50;;;1.10;;
48403;SDS011;34202;52.536;6.042;2022-07-24T17:24:43;2.10;;;1.30;;
48403;SDS011;34202;52.536;6.042;2022-07-24T17:29:44;2.30;;;1.40;;
48403;SDS011;34202;52.536;6.042;2022-07-24T17:34:45;4.50;;;1.60;;
48403;SDS011;34202;52.536;6.042;2022-07-24T17:39:45;1.60;;;1.30;;
48403;SDS011;34202;52.536;6.042;2022-07-24T17:44:45;1.60;;;1.50;;
48403;SDS011;34202;52.536;6.042;2022-07-24T17:49:46;3.30;;;1.90;;
48403;SDS011;34202;52.536;6.042;2022-07-24T17:54:46;2.30;;;1.30;;
48403;SDS011;34202;52.536;6.042;2022-07-24T17:59:47;2.40;;;1.60;;
48403;SDS011;34202;52.536;6.042;2022-07-24T18:04:47;1.50;;;1.40;;
48403;SDS011;34202;52.536;6.042;2022-07-24T18:09:48;1.30;;;1.20;;
48403;SDS011;34202;52.536;6.042;2022-07-24T18:14:48;3.20;;;1.40;;
48403;SDS011;34202;52.536;6.042;2022-07-24T18:19:51;3.40;;;1.70;;
48403;SDS011;34202;52.536;6.042;2022-07-24T18:24:52;2.10;;;2.00;;
48403;SDS011;34202;52.536;6.042;2022-07-24T18:29:53;1.70;;;1.30;;
48403;SDS011;34202;52.536;6.042;2022-07-24T18:34:53;1.50;;;1.40;;
48403;SDS011;34202;52.536;6.042;2022-07-24T18:39:54;1.70;;;1.60;;
48403;SDS011;34202;52.536;6.042;2022-07-24T18:44:54;2.30;;;1.30;;
48403;SDS011;34202;52.536;6.042;2022-07-24T18:49:54;2.00;;;1.50;;
48403;SDS011;34202;52.536;6.042;2022-07-24T18:54:55;2.30;;;1.60;;
48403;SDS011;34202;52.536;6.042;2022-07-24T18:59:56;1.70;;;1.60;;
48403;SDS011;34202;52.536;6.042;2022-07-24T19:04:56;6.10;;;1.60;;
48403;SDS011;34202;52.536;6.042;2022-07-24T19:09:56;1.60;;;1.50;;
48403;SDS011;34202;52.536;6.042;2022-07-24T19:14:57;1.60;;;1.50;;
48403;SDS011;34202;52.536;6.042;2022-07-24T19:19:57;1.90;;;1.60;;
48403;SDS011;34202;52.536;6.042;2022-07-24T19:24:58;1.60;;;1.30;;
48403;SDS011;34202;52.536;6.042;2022-07-24T19:29:58;4.00;;;1.50;;
48403;SDS011;34202;52.536;6.042;2022-07-24T19:37:28;3.60;;;1.90;;
48403;SDS011;34202;52.536;6.042;2022-07-24T19:42:28;2.30;;;1.70;;
48403;SDS011;34202;52.536;6.042;2022-07-24T19:47:29;2.10;;;1.70;;
48403;SDS011;34202;52.536;6.042;2022-07-24T19:52:29;2.60;;;2.40;;
48403;SDS011;34202;52.536;6.042;2022-07-24T19:57:30;3.20;;;1.60;;
48403;SDS011;34202;52.536;6.042;2022-07-24T20:02:30;3.00;;;1.90;;
48403;SDS011;34202;52.536;6.042;2022-07-24T20:07:30;3.20;;;1.60;;
48403;SDS011;34202;52.536;6.042;2022-07-24T20:12:31;3.90;;;1.80;;
48403;SDS011;34202;52.536;6.042;2022-07-24T20:17:31;2.20;;;1.80;;
48403;SDS011;34202;52.536;6.042;2022-07-24T20:22:32;4.10;;;2.30;;
48403;SDS011;34202;52.536;6.042;2022-07-24T20:27:32;2.20;;;1.90;;
48403;SDS011;34202;52.536;6.042;2022-07-24T20:32:32;3.40;;;2.10;;
48403;SDS011;34202;52.536;6.042;2022-07-24T20:37:33;2.70;;;1.90;;
48403;SDS011;34202;52.536;6.042;2022-07-24T20:42:34;1.70;;;1.50;;
48403;SDS011;34202;52.536;6.042;2022-07-24T20:47:35;2.30;;;2.00;;
48403;SDS011;34202;52.536;6.042;2022-07-24T20:52:36;2.30;;;1.60;;
48403;SDS011;34202;52.536;6.042;2022-07-24T20:57:36;3.20;;;2.00;;
48403;SDS011;34202;52.536;6.042;2022-07-24T21:02:37;2.50;;;1.90;;
48403;SDS011;34202;52.536;6.042;2022-07-24T21:07:37;1.90;;;1.70;;
48403;SDS011;34202;52.536;6.042;2022-07-24T21:12:38;1.80;;;1.70;;
48403;SDS011;34202;52.536;6.042;2022-07-24T21:17:39;7.30;;;2.10;;
48403;SDS011;34202;52.536;6.042;2022-07-24T21:22:39;2.10;;;1.70;;
48403;SDS011;34202;52.536;6.042;2022-07-24T21:27:40;2.00;;;1.90;;
48403;SDS011;34202;52.536;6.042;2022-07-24T21:32:41;2.80;;;2.10;;
48403;SDS011;34202;52.536;6.042;2022-07-24T21:37:41;3.10;;;1.80;;
48403;SDS011;34202;52.536;6.042;2022-07-24T21:42:41;3.70;;;2.90;;
48403;SDS011;34202;52.536;6.042;2022-07-24T21:47:42;5.20;;;2.60;;
48403;SDS011;34202;52.536;6.042;2022-07-24T21:52:42;2.80;;;2.20;;
48403;SDS011;34202;52.536;6.042;2022-07-24T21:57:42;3.70;;;1.90;;
48403;SDS011;34202;52.536;6.042;2022-07-24T22:02:43;4.40;;;1.90;;
48403;SDS011;34202;52.536;6.042;2022-07-24T22:07:43;2.10;;;1.90;;
48403;SDS011;34202;52.536;6.042;2022-07-24T22:12:44;2.00;;;1.80;;
48403;SDS011;34202;52.536;6.042;2022-07-24T22:17:44;2.40;;;2.10;;
48403;SDS011;34202;52.536;6.042;2022-07-24T22:22:44;2.00;;;1.80;;
48403;SDS011;34202;52.536;6.042;2022-07-24T22:27:45;2.30;;;2.20;;
48403;SDS011;34202;52.536;6.042;2022-07-24T22:32:45;2.00;;;1.60;;
48403;SDS011;34202;52.536;6.042;2022-07-24T22:37:46;2.50;;;2.00;;
48403;SDS011;34202;52.536;6.042;2022-07-24T22:42:48;2.20;;;1.80;;
48403;SDS011;34202;52.536;6.042;2022-07-24T22:47:49;2.30;;;2.10;;
48403;SDS011;34202;52.536;6.042;2022-07-24T22:52:50;4.10;;;2.10;;
48403;SDS011;34202;52.536;6.042;2022-07-24T22:57:51;1.90;;;1.80;;
48403;SDS011;34202;52.536;6.042;2022-07-24T23:02:53;2.20;;;1.90;;
48403;SDS011;34202;52.536;6.042;2022-07-24T23:07:54;4.30;;;2.10;;
48403;SDS011;34202;52.536;6.042;2022-07-24T23:12:54;4.00;;;2.20;;
48403;SDS011;34202;52.536;6.042;2022-07-24T23:17:55;7.90;;;2.70;;
48403;SDS011;34202;52.536;6.042;2022-07-24T23:22:55;4.40;;;2.30;;
48403;SDS011;34202;52.536;6.042;2022-07-24T23:27:56;3.00;;;2.30;;
48403;SDS011;34202;52.536;6.042;2022-07-24T23:44:50;2.30;;;2.10;;
48403;SDS011;34202;52.536;6.042;2022-07-24T23:49:51;2.50;;;2.30;;
48403;SDS011;34202;52.536;6.042;2022-07-24T23:54:51;2.30;;;2.10;;
48403;SDS011;34202;52.536;6.042;2022-07-24T23:59:52;4.60;;;2.80;;
